createdAt,value
2018-07-26T00:01:55.819Z,25.85
2018-07-26T00:04:25.461Z,25.84
2018-07-26T00:06:54.312Z,25.82
2018-07-26T00:09:23.634Z,25.80
2018-07-26T00:11:52.234Z,25.77
2018-07-26T00:14:20.694Z,25.72
2018-07-26T00:16:49.277Z,25.69
2018-07-26T00:19:17.767Z,25.64
2018-07-26T00:21:46.233Z,25.63
2018-07-26T00:24:15.797Z,25.60
2018-07-26T00:26:45.452Z,25.58
2018-07-26T00:29:14.079Z,25.56
2018-07-26T00:31:43.140Z,25.51
2018-07-26T00:34:11.618Z,25.47
2018-07-26T00:36:45.491Z,25.40
2018-07-26T00:39:14.137Z,25.29
2018-07-26T00:41:43.781Z,25.26
2018-07-26T00:44:12.384Z,25.27
2018-07-26T00:46:41.069Z,25.24
2018-07-26T00:49:09.510Z,25.21
2018-07-26T00:51:37.998Z,25.18
2018-07-26T00:54:06.540Z,25.12
2018-07-26T00:56:35.168Z,25.07
2018-07-26T00:59:03.751Z,25.05
2018-07-26T01:01:32.382Z,25.06
2018-07-26T01:04:00.881Z,25.04
2018-07-26T01:06:29.747Z,25.03
2018-07-26T01:08:58.444Z,25.01
2018-07-26T01:11:27.404Z,24.99
2018-07-26T01:13:55.917Z,24.91
2018-07-26T01:16:24.598Z,24.86
2018-07-26T01:18:53.056Z,24.81
2018-07-26T01:21:21.842Z,24.74
2018-07-26T01:23:50.621Z,24.62
2018-07-26T01:26:19.881Z,24.51
2018-07-26T01:28:48.354Z,24.49
2018-07-26T01:31:16.960Z,24.47
2018-07-26T01:33:45.694Z,24.45
2018-07-26T01:36:14.368Z,24.46
2018-07-26T01:38:42.902Z,24.41
2018-07-26T01:41:11.431Z,24.38
2018-07-26T01:43:52.048Z,24.38
2018-07-26T01:46:22.167Z,24.43
2018-07-26T01:48:50.822Z,24.42
2018-07-26T01:51:19.341Z,24.43
2018-07-26T01:53:47.984Z,24.46
2018-07-26T01:56:16.623Z,24.46
2018-07-26T01:58:45.296Z,24.48
2018-07-26T02:01:14.563Z,24.49
2018-07-26T02:03:43.016Z,24.47
2018-07-26T02:06:11.499Z,24.41
2018-07-26T02:08:39.949Z,24.37
2018-07-26T02:11:08.429Z,24.36
2018-07-26T02:13:36.994Z,24.34
2018-07-26T02:16:05.447Z,24.30
2018-07-26T02:18:33.929Z,24.29
2018-07-26T02:21:02.417Z,24.26
2018-07-26T02:23:31.612Z,24.24
2018-07-26T02:26:00.216Z,24.23
2018-07-26T02:28:28.824Z,24.21
2018-07-26T02:30:57.351Z,24.20
2018-07-26T02:33:25.993Z,24.19
2018-07-26T02:35:54.490Z,24.15
2018-07-26T02:38:23.171Z,24.14
2018-07-26T02:40:51.726Z,24.11
2018-07-26T02:43:20.241Z,24.09
2018-07-26T02:45:48.878Z,24.01
2018-07-26T02:48:17.381Z,23.97
2018-07-26T02:50:45.995Z,23.92
2018-07-26T02:53:14.586Z,23.86
2018-07-26T02:55:43.105Z,23.83
2018-07-26T02:58:11.739Z,23.81
2018-07-26T03:00:40.936Z,23.74
2018-07-26T03:03:09.459Z,23.67
2018-07-26T03:05:37.976Z,23.62
2018-07-26T03:08:06.670Z,23.63
2018-07-26T03:10:35.144Z,23.65
2018-07-26T03:13:03.804Z,23.65
2018-07-26T03:15:33.009Z,23.63
2018-07-26T03:18:01.582Z,23.59
2018-07-26T03:20:30.254Z,23.59
2018-07-26T03:22:58.892Z,23.60
2018-07-26T03:25:27.692Z,23.58
2018-07-26T03:27:56.382Z,23.51
2018-07-26T03:30:25.245Z,23.47
2018-07-26T03:32:54.156Z,23.45
2018-07-26T03:35:23.429Z,23.38
2018-07-26T03:37:52.182Z,23.37
2018-07-26T03:40:21.096Z,23.36
2018-07-26T03:42:50.034Z,23.33
2018-07-26T03:45:23.790Z,23.31
2018-07-26T03:47:52.376Z,23.25
2018-07-26T03:50:21.321Z,23.22
2018-07-26T03:52:50.086Z,23.26
2018-07-26T03:55:19.186Z,23.31
2018-07-26T03:57:48.486Z,23.31
2018-07-26T04:00:17.361Z,23.33
2018-07-26T04:02:45.861Z,23.38
2018-07-26T04:05:14.518Z,23.38
2018-07-26T04:07:43.330Z,23.36
2018-07-26T04:10:12.469Z,23.37
2018-07-26T04:12:41.595Z,23.34
2018-07-26T04:15:10.491Z,23.38
2018-07-26T04:17:40.014Z,23.37
2018-07-26T04:20:09.649Z,23.34
2018-07-26T04:22:38.480Z,23.36
2018-07-26T04:25:07.212Z,23.37
2018-07-26T04:27:36.590Z,23.33
2018-07-26T04:30:06.004Z,23.26
2018-07-26T04:32:34.954Z,23.20
2018-07-26T04:35:03.586Z,23.15
2018-07-26T04:37:32.486Z,23.16
2018-07-26T04:40:01.255Z,23.17
2018-07-26T04:42:29.847Z,23.18
2018-07-26T04:44:59.204Z,23.19
2018-07-26T04:47:27.840Z,23.19
2018-07-26T04:49:56.997Z,23.25
2018-07-26T04:52:26.049Z,23.30
2018-07-26T04:54:55.041Z,23.33
2018-07-26T04:57:23.752Z,23.39
2018-07-26T04:59:52.813Z,23.43
2018-07-26T05:02:21.729Z,23.44
2018-07-26T05:04:55.873Z,23.50
2018-07-26T05:07:24.708Z,23.52
2018-07-26T05:09:53.710Z,23.53
2018-07-26T05:12:22.652Z,23.54
2018-07-26T05:14:51.453Z,23.54
2018-07-26T05:17:20.792Z,23.47
2018-07-26T05:19:49.878Z,23.52
2018-07-26T05:22:18.930Z,23.60
2018-07-26T05:24:47.724Z,23.64
2018-07-26T05:27:16.459Z,23.68
2018-07-26T05:29:46.048Z,23.72
2018-07-26T05:32:14.943Z,23.81
2018-07-26T05:34:43.803Z,23.84
2018-07-26T05:37:12.764Z,23.92
2018-07-26T05:39:41.870Z,23.97
2018-07-26T05:42:11.256Z,24.03
2018-07-26T05:44:40.269Z,24.13
2018-07-26T05:47:09.668Z,24.21
2018-07-26T05:49:38.449Z,24.26
2018-07-26T05:52:07.239Z,24.27
2018-07-26T05:54:36.355Z,24.32
2018-07-26T05:57:05.148Z,24.38
2018-07-26T05:59:34.286Z,24.46
2018-07-26T06:02:03.044Z,24.49
2018-07-26T06:04:37.040Z,24.50
2018-07-26T06:07:06.159Z,24.53
2018-07-26T06:09:34.875Z,24.54
2018-07-26T06:12:03.977Z,24.56
2018-07-26T06:14:38.964Z,24.60
2018-07-26T06:17:07.710Z,24.66
2018-07-26T06:19:36.661Z,24.75
2018-07-26T06:22:05.968Z,24.84
2018-07-26T06:24:34.742Z,24.91
2018-07-26T06:27:03.763Z,25.03
2018-07-26T06:29:32.810Z,25.13
2018-07-26T06:32:02.249Z,25.16
2018-07-26T06:34:31.118Z,25.15
2018-07-26T06:36:59.945Z,25.18
2018-07-26T06:39:28.915Z,25.25
2018-07-26T06:41:57.680Z,25.28
2018-07-26T06:44:26.679Z,25.27
2018-07-26T06:46:59.019Z,25.31
2018-07-26T06:49:28.050Z,25.33
2018-07-26T06:51:57.641Z,25.32
2018-07-26T06:54:26.455Z,25.34
2018-07-26T06:56:55.889Z,25.37
2018-07-26T06:59:25.080Z,25.41
2018-07-26T07:01:54.079Z,25.47
2018-07-26T07:04:23.566Z,25.53
2018-07-26T07:06:52.404Z,25.61
2018-07-26T07:09:21.664Z,25.68
2018-07-26T07:11:50.600Z,25.79
2018-07-26T07:14:19.621Z,25.83
2018-07-26T07:16:48.681Z,25.90
2018-07-26T07:19:17.714Z,25.96
2018-07-26T07:21:46.654Z,26.00
2018-07-26T07:24:20.526Z,26.06
2018-07-26T07:26:51.282Z,26.11
2018-07-26T07:29:20.240Z,26.18
2018-07-26T07:31:49.655Z,26.25
2018-07-26T07:34:18.718Z,26.30
2018-07-26T07:36:47.763Z,26.34
2018-07-26T07:39:16.551Z,26.41
2018-07-26T07:41:45.515Z,26.47
2018-07-26T07:44:14.503Z,26.53
2018-07-26T07:46:43.393Z,26.60
2018-07-26T07:49:12.058Z,26.67
2018-07-26T07:51:40.911Z,26.68
2018-07-26T07:54:09.447Z,26.73
2018-07-26T07:56:38.308Z,26.84
2018-07-26T07:59:07.233Z,26.93
2018-07-26T08:01:35.950Z,27.00
2018-07-26T08:04:05.113Z,27.06
2018-07-26T08:06:34.268Z,27.15
2018-07-26T08:09:03.054Z,27.24
2018-07-26T08:11:31.752Z,27.32
2018-07-26T08:14:00.843Z,27.41
2018-07-26T08:16:29.825Z,27.52
2018-07-26T08:18:58.633Z,27.64
2018-07-26T08:21:27.358Z,27.77
2018-07-26T08:23:56.106Z,27.88
2018-07-26T08:26:25.116Z,28.01
2018-07-26T08:28:54.310Z,28.09
2018-07-26T08:31:23.120Z,28.18
2018-07-26T08:33:51.693Z,28.26
2018-07-26T08:36:21.007Z,28.38
2018-07-26T08:38:49.977Z,28.47
2018-07-26T08:41:19.524Z,28.57
2018-07-26T08:43:48.568Z,28.66
2018-07-26T08:46:17.684Z,28.77
2018-07-26T08:48:47.122Z,28.86
2018-07-26T08:51:15.805Z,28.93
2018-07-26T08:53:45.029Z,29.02
2018-07-26T08:56:14.045Z,29.12
2018-07-26T08:58:42.644Z,29.27
2018-07-26T09:01:11.623Z,29.39
2018-07-26T09:03:40.656Z,29.50
2018-07-26T09:06:09.839Z,29.62
2018-07-26T09:08:38.827Z,29.75
2018-07-26T09:11:07.653Z,29.85
2018-07-26T09:13:36.403Z,29.93
2018-07-26T09:16:05.434Z,30.05
2018-07-26T09:18:34.095Z,30.18
2018-07-26T09:21:02.898Z,30.33
2018-07-26T09:23:31.902Z,30.50
2018-07-26T09:26:00.522Z,30.60
2018-07-26T09:28:29.073Z,30.73
2018-07-26T09:30:57.660Z,30.87
2018-07-26T09:33:26.464Z,30.97
2018-07-26T09:35:55.457Z,31.09
2018-07-26T09:38:24.223Z,31.22
2018-07-26T09:40:53.067Z,31.37
2018-07-26T09:43:21.851Z,31.50
2018-07-26T09:45:50.648Z,31.63
2018-07-26T09:48:19.722Z,31.73
2018-07-26T09:50:48.652Z,31.87
2018-07-26T09:53:17.316Z,31.97
2018-07-26T09:55:46.158Z,32.12
2018-07-26T09:58:14.661Z,32.24
2018-07-26T10:00:48.483Z,32.36
2018-07-26T10:03:17.270Z,32.51
2018-07-26T10:05:46.145Z,32.68
2018-07-26T10:08:14.989Z,32.83
2018-07-26T10:10:43.798Z,32.95
2018-07-26T10:13:12.975Z,33.12
2018-07-26T10:15:41.630Z,33.29
2018-07-26T10:18:10.320Z,33.38
2018-07-26T10:20:39.357Z,33.50
2018-07-26T10:23:08.076Z,33.61
2018-07-26T10:25:37.314Z,33.63
2018-07-26T10:28:06.525Z,33.66
2018-07-26T10:30:35.824Z,33.71
2018-07-26T10:33:04.849Z,33.89
2018-07-26T10:35:33.931Z,34.06
2018-07-26T10:38:02.548Z,34.19
2018-07-26T10:40:31.486Z,34.31
2018-07-26T10:43:00.367Z,34.47
2018-07-26T10:45:29.384Z,34.70
2018-07-26T10:47:58.743Z,34.90
2018-07-26T10:50:27.788Z,35.08
2018-07-26T10:52:58.319Z,35.20
2018-07-26T10:55:33.562Z,35.31
2018-07-26T10:58:07.201Z,35.42
2018-07-26T11:00:38.270Z,35.59
2018-07-26T11:03:13.635Z,35.81
2018-07-26T11:05:51.814Z,35.89
2018-07-26T11:28:31.470Z,37.13
2018-07-26T11:31:00.250Z,37.27
2018-07-26T11:33:29.354Z,37.37
2018-07-26T11:35:58.534Z,37.48
2018-07-26T11:38:27.660Z,37.48
2018-07-26T11:40:57.063Z,37.54
2018-07-26T11:43:25.945Z,37.69
2018-07-26T11:45:55.188Z,37.77
2018-07-26T11:48:24.113Z,37.94
2018-07-26T11:50:52.813Z,38.17
2018-07-26T11:53:22.019Z,38.32
2018-07-26T11:55:52.284Z,38.47
2018-07-26T11:58:21.102Z,38.58
2018-07-26T12:00:50.091Z,38.75
2018-07-26T12:03:25.213Z,38.78
2018-07-26T12:05:54.638Z,38.92
2018-07-26T12:08:23.083Z,38.86
2018-07-26T12:10:51.896Z,39.01
2018-07-26T12:13:21.495Z,39.18
2018-07-26T12:15:50.355Z,39.36
2018-07-26T12:18:19.504Z,39.52
2018-07-26T12:20:48.348Z,39.68
2018-07-26T12:23:17.423Z,39.81
2018-07-26T12:25:46.209Z,39.84
2018-07-26T12:28:15.248Z,40.01
2018-07-26T12:30:44.498Z,40.15
2018-07-26T12:33:13.807Z,40.27
2018-07-26T12:35:43.291Z,40.34
2018-07-26T12:38:12.589Z,40.35
2018-07-26T12:40:41.792Z,40.53
2018-07-26T12:43:11.598Z,40.43
2018-07-26T12:45:40.606Z,40.70
2018-07-26T12:48:09.578Z,40.86
2018-07-26T12:50:38.709Z,41.10
2018-07-26T12:53:07.473Z,41.20
2018-07-26T12:55:36.301Z,41.66
2018-07-26T12:58:05.498Z,41.82
2018-07-26T13:00:34.790Z,41.94
2018-07-26T13:03:03.785Z,41.96
2018-07-26T13:05:33.189Z,42.12
2018-07-26T13:08:02.357Z,42.51
2018-07-26T13:10:31.763Z,42.87
2018-07-26T13:13:01.374Z,42.96
2018-07-26T13:15:30.754Z,42.59
2018-07-26T13:18:00.114Z,42.32
2018-07-26T13:20:29.420Z,42.31
2018-07-26T13:22:58.607Z,42.29
2018-07-26T13:25:27.452Z,42.08
2018-07-26T13:27:56.686Z,41.91
2018-07-26T13:30:26.256Z,41.90
2018-07-26T13:32:55.369Z,41.81
2018-07-26T13:35:24.725Z,41.90
2018-07-26T13:37:53.970Z,41.59
2018-07-26T13:40:23.411Z,41.13
2018-07-26T13:42:52.283Z,40.74
2018-07-26T13:45:21.494Z,40.09
2018-07-26T13:47:50.528Z,39.35
2018-07-26T13:50:19.675Z,38.86
2018-07-26T13:52:48.536Z,38.43
2018-07-26T13:55:17.737Z,38.69
2018-07-26T13:57:46.626Z,39.20
2018-07-26T14:00:15.451Z,39.73
2018-07-26T14:02:44.701Z,40.16
2018-07-26T14:05:14.296Z,40.54
2018-07-26T14:07:43.544Z,40.78
2018-07-26T14:10:12.110Z,41.02
2018-07-26T14:12:42.293Z,41.27
2018-07-26T14:15:12.489Z,41.43
2018-07-26T14:17:42.564Z,41.57
2018-07-26T14:20:14.202Z,41.83
2018-07-26T14:22:43.637Z,41.97
2018-07-26T14:25:13.420Z,41.88
2018-07-26T14:27:43.198Z,41.27
2018-07-26T14:30:12.909Z,40.52
2018-07-26T14:32:42.909Z,40.03
2018-07-26T14:35:13.194Z,39.61
2018-07-26T14:37:49.206Z,39.47
2018-07-26T15:00:29.026Z,39.13
2018-07-26T15:02:58.263Z,39.38
2018-07-26T15:05:27.613Z,39.45
2018-07-26T15:07:56.666Z,39.18
2018-07-26T15:10:25.557Z,38.72
2018-07-26T15:12:54.639Z,38.40
2018-07-26T15:15:23.983Z,38.02
2018-07-26T15:17:53.232Z,37.64
2018-07-26T15:20:21.887Z,37.31
2018-07-26T15:22:50.706Z,37.19
2018-07-26T15:25:24.973Z,37.51
2018-07-26T15:27:54.624Z,37.77
2018-07-26T15:30:23.676Z,37.77
2018-07-26T15:32:53.448Z,37.61
2018-07-26T15:35:22.840Z,37.39
2018-07-26T15:37:52.065Z,37.18
2018-07-26T15:40:21.236Z,36.95
2018-07-26T15:42:50.395Z,36.76
2018-07-26T15:45:19.362Z,36.60
2018-07-26T15:47:48.516Z,36.41
2018-07-26T15:50:17.630Z,36.25
2018-07-26T15:52:47.022Z,36.09
2018-07-26T15:55:16.785Z,35.95
2018-07-26T15:57:45.892Z,35.81
2018-07-26T16:00:15.089Z,35.68
2018-07-26T16:02:44.068Z,35.60
2018-07-26T16:05:13.207Z,35.52
2018-07-26T16:07:42.682Z,35.46
2018-07-26T16:10:11.835Z,35.40
2018-07-26T16:12:40.854Z,35.34
2018-07-26T16:15:10.993Z,35.26
2018-07-26T16:17:40.797Z,35.18
2018-07-26T16:20:10.671Z,35.13
2018-07-26T16:22:39.936Z,35.11
2018-07-26T16:25:10.125Z,35.06
2018-07-26T16:27:42.346Z,35.04
2018-07-26T17:21:54.950Z,31.00
2018-07-26T17:32:11.652Z,31.15
2018-07-26T17:42:05.814Z,31.47
2018-07-26T17:44:34.914Z,31.69
2018-07-26T17:47:04.132Z,31.88
2018-07-26T17:49:32.814Z,32.04
2018-07-26T17:52:01.756Z,32.22
2018-07-26T17:54:30.566Z,32.41
2018-07-26T17:56:59.722Z,32.55
2018-07-26T17:59:28.889Z,32.64
2018-07-26T18:01:57.540Z,32.72
2018-07-26T18:04:26.569Z,32.78
2018-07-26T18:06:55.370Z,32.84
2018-07-26T18:09:24.484Z,32.89
2018-07-26T18:11:53.488Z,32.96
2018-07-26T18:14:22.744Z,33.00
2018-07-26T18:16:51.795Z,33.04
2018-07-26T18:19:20.477Z,33.06
2018-07-26T18:21:49.675Z,32.99
2018-07-26T18:24:18.833Z,32.99
2018-07-26T18:26:47.993Z,33.00
2018-07-26T18:29:17.118Z,32.92
2018-07-26T18:31:46.303Z,32.91
2018-07-26T18:34:15.328Z,32.95
2018-07-26T18:36:44.588Z,32.97
2018-07-26T18:39:14.089Z,32.97
2018-07-26T18:41:43.244Z,32.90
2018-07-26T18:44:12.333Z,32.68
2018-07-26T18:46:41.236Z,32.42
2018-07-26T18:49:10.241Z,32.28
2018-07-26T18:51:45.903Z,32.11
2018-07-26T18:54:14.989Z,31.90
2018-07-26T18:56:43.763Z,31.77
2018-07-26T18:59:12.488Z,31.69
2018-07-26T19:01:41.419Z,31.57
2018-07-26T19:04:10.685Z,31.58
2018-07-26T19:06:40.130Z,31.65
2018-07-26T19:09:11.243Z,31.65
2018-07-26T19:11:40.520Z,31.63
2018-07-26T19:14:09.886Z,31.53
2018-07-26T19:16:39.089Z,31.53
2018-07-26T19:19:08.087Z,31.55
2018-07-26T19:21:37.018Z,31.56
2018-07-26T19:24:06.220Z,31.49
2018-07-26T19:26:41.337Z,31.47
2018-07-26T19:29:10.197Z,31.48
2018-07-26T19:31:39.285Z,31.41
2018-07-26T19:34:08.139Z,31.26
2018-07-26T19:36:36.922Z,31.14
2018-07-26T19:39:09.783Z,31.08
2018-07-26T19:41:38.635Z,31.03
2018-07-26T19:44:07.709Z,31.07
2018-07-26T19:46:36.422Z,31.15
2018-07-26T19:49:05.354Z,31.17
2018-07-26T19:51:33.969Z,31.16
2018-07-26T19:54:02.704Z,31.11
2018-07-26T19:56:31.712Z,31.12
2018-07-26T19:59:00.513Z,31.13
2018-07-26T20:01:29.063Z,31.11
2018-07-26T20:03:57.925Z,31.00
2018-07-26T20:06:26.501Z,31.00
2018-07-26T20:08:55.150Z,31.01
2018-07-26T20:11:23.785Z,30.99
2018-07-26T20:13:52.350Z,30.89
2018-07-26T20:16:20.861Z,30.72
2018-07-26T20:18:49.720Z,30.67
2018-07-26T20:21:18.181Z,30.68
2018-07-26T20:23:46.847Z,30.72
2018-07-26T20:26:15.659Z,30.74
2018-07-26T20:28:45.144Z,30.73
2018-07-26T20:31:13.711Z,30.74
2018-07-26T20:33:42.235Z,30.72
2018-07-26T20:36:10.755Z,30.70
2018-07-26T20:38:39.353Z,30.67
2018-07-26T20:41:08.215Z,30.63
2018-07-26T20:43:36.776Z,30.59
2018-07-26T20:46:05.676Z,30.56
2018-07-26T20:48:35.703Z,30.52
2018-07-26T20:51:04.249Z,30.48
2018-07-26T20:53:32.891Z,30.42
2018-07-26T20:56:01.351Z,30.36
2018-07-26T20:58:29.923Z,30.32
2018-07-26T21:00:58.602Z,30.25
2018-07-26T21:03:27.173Z,30.19
2018-07-26T21:05:56.113Z,30.12
2018-07-26T21:08:24.612Z,30.06
2018-07-26T21:10:53.225Z,30.02
2018-07-26T21:13:21.820Z,29.96
2018-07-26T21:15:50.433Z,29.90
2018-07-26T21:18:18.852Z,29.85
2018-07-26T21:20:47.351Z,29.79
2018-07-26T21:23:16.148Z,29.75
2018-07-26T21:25:46.819Z,29.70
2018-07-26T21:28:15.575Z,29.70
2018-07-26T21:30:44.221Z,29.70
2018-07-26T21:33:13.141Z,29.72
2018-07-26T21:35:41.786Z,29.75
2018-07-26T21:38:10.467Z,29.78
2018-07-26T21:40:39.108Z,29.82
2018-07-26T21:43:07.684Z,29.83
2018-07-26T21:45:36.142Z,29.82
2018-07-26T21:48:04.842Z,29.84
2018-07-26T21:50:33.710Z,29.83
2018-07-26T21:53:02.284Z,29.82
2018-07-26T21:55:31.109Z,29.76
2018-07-26T21:57:59.668Z,29.73
2018-07-26T22:00:37.796Z,29.72
2018-07-26T22:03:07.263Z,29.63
2018-07-26T22:05:36.447Z,29.62
2018-07-26T22:08:05.312Z,29.62
2018-07-26T22:10:33.848Z,29.59
2018-07-26T22:13:02.331Z,29.57
2018-07-26T22:15:30.923Z,29.57
2018-07-26T22:17:59.367Z,29.56
2018-07-26T22:20:28.022Z,29.55
2018-07-26T22:22:56.993Z,29.50
2018-07-26T22:25:25.506Z,29.37
2018-07-26T22:27:53.965Z,29.32
2018-07-26T22:30:22.461Z,29.26
2018-07-26T22:32:51.222Z,29.22
2018-07-26T22:35:19.737Z,29.20
2018-07-26T22:37:48.253Z,29.18
2018-07-26T22:40:16.844Z,29.13
2018-07-26T22:42:48.226Z,29.08
2018-07-26T22:45:16.891Z,29.05
2018-07-26T22:47:45.605Z,29.04
2018-07-26T22:50:14.132Z,29.02
2018-07-26T22:52:42.869Z,28.99
2018-07-26T22:55:11.450Z,28.99
2018-07-26T22:57:40.200Z,28.97
2018-07-26T23:00:08.963Z,28.94
2018-07-26T23:02:37.702Z,28.91
2018-07-26T23:05:06.740Z,28.86
2018-07-26T23:07:35.369Z,28.80
2018-07-26T23:10:03.921Z,28.76
2018-07-26T23:12:32.439Z,28.73
2018-07-26T23:15:00.964Z,28.72
2018-07-26T23:17:29.432Z,28.65
2018-07-26T23:19:57.996Z,28.62
2018-07-26T23:22:26.657Z,28.58
2018-07-26T23:24:55.439Z,28.51
2018-07-26T23:27:24.073Z,28.45
2018-07-26T23:29:52.728Z,28.45
2018-07-26T23:32:21.404Z,28.40
2018-07-26T23:34:49.852Z,28.37
2018-07-26T23:37:18.496Z,28.32
2018-07-26T23:39:46.937Z,28.30
2018-07-26T23:42:15.400Z,28.26
